createdAt,value
2018-01-28T00:00:28.736Z,91.33
2018-01-28T00:01:28.707Z,90.47
2018-01-28T00:02:28.691Z,91.52
2018-01-28T00:03:28.718Z,91.24
2018-01-28T00:04:28.642Z,91.24
2018-01-28T00:05:28.682Z,91.24
2018-01-28T00:06:28.598Z,90.95
2018-01-28T00:07:28.582Z,90.95
2018-01-28T00:08:28.562Z,91.04
2018-01-28T00:09:28.543Z,91.14
2018-01-28T00:10:28.520Z,91.04
2018-01-28T00:11:28.603Z,91.24
2018-01-28T00:12:28.469Z,91.33
2018-01-28T00:13:28.453Z,91.24
2018-01-28T00:14:28.434Z,90.95
2018-01-28T00:15:28.408Z,90.76
2018-01-28T00:16:28.389Z,90.76
2018-01-28T00:17:28.391Z,90.66
2018-01-28T00:18:28.344Z,90.95
2018-01-28T00:19:28.372Z,91.61
2018-01-28T00:20:28.301Z,90.95
2018-01-28T00:21:28.283Z,91.52
2018-01-28T00:22:28.261Z,91.61
2018-01-28T00:23:28.238Z,90.76
2018-01-28T00:24:28.218Z,91.33
2018-01-28T00:25:28.204Z,90.66
2018-01-28T00:26:28.181Z,90.76
2018-01-28T00:27:28.156Z,90.66
2018-01-28T00:28:28.131Z,90.95
2018-01-28T00:29:28.110Z,91.14
2018-01-28T00:30:28.090Z,90.66
2018-01-28T00:31:28.068Z,90.66
2018-01-28T00:32:28.051Z,91.61
2018-01-28T00:33:28.024Z,91.04
2018-01-28T00:34:27.999Z,90.95
2018-01-28T00:35:27.979Z,90.95
2018-01-28T00:36:27.958Z,91.04
2018-01-28T00:37:27.939Z,91.52
2018-01-28T00:38:27.932Z,91.04
2018-01-28T00:39:27.893Z,91.24
2018-01-28T00:40:27.871Z,90.57
2018-01-28T00:41:27.849Z,91.04
2018-01-28T00:42:27.835Z,90.85
2018-01-28T00:43:27.812Z,90.85
2018-01-28T00:44:27.789Z,90.95
2018-01-28T00:45:27.784Z,91.33
2018-01-28T00:46:27.753Z,91.33
2018-01-28T00:47:27.729Z,90.85
2018-01-28T00:48:27.705Z,91.33
2018-01-28T00:49:27.680Z,90.95
2018-01-28T00:50:27.658Z,91.04
2018-01-28T00:51:27.642Z,91.04
2018-01-28T00:52:27.616Z,91.04
2018-01-28T00:53:27.601Z,90.66
2018-01-28T00:54:27.578Z,91.04
2018-01-28T00:55:27.552Z,91.24
2018-01-28T00:56:27.577Z,90.95
2018-01-28T00:57:27.507Z,90.95
2018-01-28T00:58:27.490Z,90.76
2018-01-28T00:59:27.468Z,90.85
2018-01-28T01:00:27.443Z,90.76
2018-01-28T01:01:27.429Z,90.66
2018-01-28T01:02:27.406Z,90.66
2018-01-28T01:03:27.383Z,91.24
2018-01-28T01:04:27.360Z,91.04
2018-01-28T01:05:27.341Z,91.24
2018-01-28T01:06:27.319Z,90.76
2018-01-28T01:07:27.296Z,90.95
2018-01-28T01:08:27.280Z,91.14
2018-01-28T01:09:27.255Z,91.24
2018-01-28T01:10:27.236Z,90.95
2018-01-28T01:11:27.207Z,91.14
2018-01-28T01:12:27.186Z,90.85
2018-01-28T01:13:27.172Z,90.76
2018-01-28T01:14:27.146Z,90.66
2018-01-28T01:15:27.126Z,90.66
2018-01-28T01:16:27.105Z,90.85
2018-01-28T01:17:27.085Z,90.57
2018-01-28T01:18:27.059Z,90.76
2018-01-28T01:19:27.038Z,90.57
2018-01-28T01:20:27.018Z,90.85
2018-01-28T01:21:26.999Z,90.95
2018-01-28T01:22:26.977Z,90.95
2018-01-28T01:23:26.954Z,91.04
2018-01-28T01:24:26.946Z,90.95
2018-01-28T01:25:26.910Z,90.66
2018-01-28T01:26:26.890Z,90.95
2018-01-28T01:27:26.867Z,90.85
2018-01-28T01:28:26.848Z,90.95
2018-01-28T01:29:26.823Z,90.95
2018-01-28T01:30:26.813Z,91.14
2018-01-28T01:31:26.779Z,90.95
2018-01-28T01:32:26.769Z,90.85
2018-01-28T01:33:26.740Z,90.85
2018-01-28T01:34:26.717Z,90.85
2018-01-28T01:35:26.699Z,91.24
2018-01-28T01:36:26.679Z,91.24
2018-01-28T01:37:26.659Z,90.76
2018-01-28T01:38:26.634Z,91.14
2018-01-28T01:39:26.615Z,90.85
2018-01-28T01:40:26.589Z,90.57
2018-01-28T01:41:26.570Z,91.09
2018-01-28T01:42:26.559Z,90.76
2018-01-28T01:43:26.538Z,90.33
2018-01-28T01:44:26.514Z,90.23
2018-01-28T01:45:26.488Z,90.71
2018-01-28T01:46:26.465Z,91.04
2018-01-28T01:47:26.444Z,90.85
2018-01-28T01:48:26.424Z,91.04
2018-01-28T01:49:26.403Z,90.85
2018-01-28T01:50:26.380Z,90.85
2018-01-28T01:51:26.365Z,90.76
2018-01-28T01:52:26.339Z,90.85
2018-01-28T01:53:26.316Z,90.95
2018-01-28T01:54:26.297Z,90.80
2018-01-28T01:55:26.277Z,90.95
2018-01-28T01:56:26.260Z,90.85
2018-01-28T01:57:26.233Z,90.61
2018-01-28T01:58:26.211Z,90.76
2018-01-28T01:59:26.230Z,90.85
2018-01-28T02:00:26.172Z,91.04
2018-01-28T02:01:26.152Z,91.24
2018-01-28T02:02:26.125Z,91.33
2018-01-28T02:03:26.110Z,91.42
2018-01-28T02:04:26.083Z,91.14
2018-01-28T02:05:26.065Z,91.04
2018-01-28T02:06:26.044Z,91.19
2018-01-28T02:07:26.021Z,91.14
2018-01-28T02:08:25.999Z,91.24
2018-01-28T02:09:25.979Z,91.14
2018-01-28T02:10:25.960Z,91.28
2018-01-28T02:11:25.940Z,91.19
2018-01-28T02:12:25.921Z,91.28
2018-01-28T02:13:25.897Z,91.47
2018-01-28T02:14:25.875Z,90.61
2018-01-28T02:15:25.861Z,90.52
2018-01-28T02:16:25.835Z,90.80
2018-01-28T02:17:25.812Z,90.80
2018-01-28T02:18:25.793Z,91.28
2018-01-28T02:19:25.772Z,91.28
2018-01-28T02:20:25.750Z,90.80
2018-01-28T02:21:25.736Z,91.56
2018-01-28T02:22:25.702Z,91.66
2018-01-28T02:23:25.691Z,91.47
2018-01-28T02:24:25.659Z,90.61
2018-01-28T02:25:25.640Z,90.80
2018-01-28T02:26:25.628Z,91.19
2018-01-28T02:27:25.610Z,90.80
2018-01-28T02:28:25.579Z,91.38
2018-01-28T02:29:25.563Z,91.56
2018-01-28T02:30:25.544Z,90.80
2018-01-28T02:31:25.523Z,91.47
2018-01-28T02:32:25.502Z,90.90
2018-01-28T02:33:25.479Z,90.99
2018-01-28T02:34:25.456Z,90.90
2018-01-28T02:35:25.430Z,91.66
2018-01-28T02:36:25.410Z,90.71
2018-01-28T02:37:25.389Z,91.38
2018-01-28T02:38:25.369Z,91.56
2018-01-28T02:39:25.344Z,91.56
2018-01-28T02:40:25.328Z,91.75
2018-01-28T02:41:25.315Z,91.09
2018-01-28T02:42:25.290Z,91.66
2018-01-28T02:43:25.261Z,91.66
2018-01-28T02:44:25.241Z,91.09
2018-01-28T02:45:25.223Z,91.38
2018-01-28T02:46:25.199Z,91.66
2018-01-28T02:47:25.180Z,91.56
2018-01-28T02:48:25.159Z,91.56
2018-01-28T02:49:25.150Z,91.66
2018-01-28T02:50:25.119Z,91.56
2018-01-28T02:51:25.098Z,91.75
2018-01-28T02:52:25.076Z,91.28
2018-01-28T02:53:25.064Z,91.66
2018-01-28T02:54:25.044Z,91.38
2018-01-28T02:55:25.010Z,91.66
2018-01-28T02:56:25.002Z,91.28
2018-01-28T02:57:24.970Z,91.75
2018-01-28T02:58:24.949Z,91.85
2018-01-28T02:59:24.925Z,91.85
2018-01-28T03:00:24.911Z,91.28
2018-01-28T03:01:24.886Z,91.75
2018-01-28T03:02:24.876Z,91.94
2018-01-28T03:03:24.840Z,91.66
2018-01-28T03:04:24.822Z,91.09
2018-01-28T03:05:24.803Z,92.04
2018-01-28T03:06:24.777Z,91.09
2018-01-28T03:07:24.760Z,91.94
2018-01-28T03:08:24.739Z,91.66
2018-01-28T03:09:24.715Z,91.66
2018-01-28T03:10:24.695Z,91.66
2018-01-28T03:11:24.674Z,92.04
2018-01-28T03:12:24.659Z,92.04
2018-01-28T03:13:24.633Z,92.04
2018-01-28T03:14:24.618Z,91.85
2018-01-28T03:15:24.592Z,91.66
2018-01-28T03:16:24.570Z,91.85
2018-01-28T03:17:24.549Z,91.66
2018-01-28T03:18:24.526Z,91.75
2018-01-28T03:19:24.507Z,91.85
2018-01-28T03:20:24.488Z,91.66
2018-01-28T03:21:24.470Z,92.04
2018-01-28T03:22:24.455Z,91.66
2018-01-28T03:23:24.426Z,91.94
2018-01-28T03:24:24.410Z,91.66
2018-01-28T03:25:24.382Z,92.04
2018-01-28T03:26:24.369Z,91.85
2018-01-28T03:27:24.338Z,91.75
2018-01-28T03:28:24.320Z,91.75
2018-01-28T03:29:24.299Z,91.66
2018-01-28T03:30:24.279Z,91.66
2018-01-28T03:31:24.260Z,91.66
2018-01-28T03:32:24.237Z,92.04
2018-01-28T03:33:24.216Z,91.66
2018-01-28T03:34:24.199Z,92.04
2018-01-28T03:35:24.174Z,91.85
2018-01-28T03:36:24.160Z,92.04
2018-01-28T03:37:24.139Z,91.66
2018-01-28T03:38:24.115Z,91.66
2018-01-28T03:39:24.093Z,92.04
2018-01-28T03:40:24.070Z,91.66
2018-01-28T03:41:24.051Z,91.94
2018-01-28T03:42:24.032Z,91.94
2018-01-28T03:43:24.011Z,91.66
2018-01-28T03:44:24.085Z,91.80
2018-01-28T03:45:23.970Z,91.47
2018-01-28T03:46:23.948Z,91.52
2018-01-28T03:47:23.930Z,91.89
2018-01-28T03:48:23.910Z,91.47
2018-01-28T03:49:23.894Z,91.94
2018-01-28T03:50:23.970Z,91.89
2018-01-28T03:51:23.845Z,91.89
2018-01-28T03:52:23.878Z,91.89
2018-01-28T03:53:23.800Z,92.18
2018-01-28T03:54:23.787Z,92.08
2018-01-28T03:55:23.759Z,92.08
2018-01-28T03:56:23.740Z,92.08
2018-01-28T03:57:23.717Z,91.80
2018-01-28T03:58:23.699Z,92.08
2018-01-28T03:59:23.678Z,92.46
2018-01-28T04:00:23.760Z,92.18
2018-01-28T04:01:23.641Z,92.46
2018-01-28T04:02:23.663Z,92.56
2018-01-28T04:03:23.592Z,92.66
2018-01-28T04:04:23.678Z,92.46
2018-01-28T04:05:23.549Z,92.37
2018-01-28T04:06:23.586Z,92.66
2018-01-28T04:07:23.512Z,92.66
2018-01-28T04:08:23.589Z,92.56
2018-01-28T04:09:23.472Z,92.66
2018-01-28T04:10:23.449Z,92.08
2018-01-28T04:11:23.430Z,92.37
2018-01-28T04:12:23.510Z,92.18
2018-01-28T04:13:23.390Z,92.56
2018-01-28T04:14:23.376Z,92.66
2018-01-28T04:15:23.346Z,92.56
2018-01-28T04:16:23.325Z,92.08
2018-01-28T04:17:23.304Z,92.56
2018-01-28T04:18:23.286Z,92.27
2018-01-28T04:19:23.270Z,92.27
2018-01-28T04:20:23.245Z,91.99
2018-01-28T04:21:23.219Z,92.27
2018-01-28T04:22:23.200Z,92.27
2018-01-28T04:23:23.179Z,92.46
2018-01-28T04:24:23.159Z,92.27
2018-01-28T04:25:23.140Z,92.27
2018-01-28T04:26:23.119Z,92.27
2018-01-28T04:27:23.099Z,92.18
2018-01-28T04:28:23.077Z,92.27
2018-01-28T04:29:23.057Z,92.37
2018-01-28T04:30:23.040Z,92.46
2018-01-28T04:31:23.020Z,92.56
2018-01-28T04:32:23.000Z,92.75
2018-01-28T04:33:22.976Z,92.56
2018-01-28T04:34:22.961Z,92.46
2018-01-28T04:35:22.933Z,92.94
2018-01-28T04:36:22.914Z,92.66
2018-01-28T04:37:22.897Z,92.75
2018-01-28T04:38:22.871Z,92.75
2018-01-28T04:39:22.854Z,92.46
2018-01-28T04:40:22.830Z,92.56
2018-01-28T04:41:22.810Z,92.56
2018-01-28T04:42:22.793Z,93.04
2018-01-28T04:43:22.771Z,92.66
2018-01-28T04:44:22.751Z,93.13
2018-01-28T04:45:22.729Z,93.13
2018-01-28T04:46:22.710Z,93.13
2018-01-28T04:47:22.688Z,93.13
2018-01-28T04:48:22.668Z,93.23
2018-01-28T04:49:22.647Z,92.85
2018-01-28T04:50:22.623Z,93.13
2018-01-28T04:51:22.610Z,93.32
2018-01-28T04:52:22.582Z,93.04
2018-01-28T04:53:22.565Z,93.23
2018-01-28T04:54:22.546Z,93.13
2018-01-28T04:55:22.528Z,92.94
2018-01-28T04:56:22.500Z,93.13
2018-01-28T04:57:22.480Z,93.23
2018-01-28T04:58:22.460Z,93.23
2018-01-28T04:59:22.445Z,93.32
2018-01-28T05:00:22.421Z,93.32
2018-01-28T05:01:22.399Z,93.41
2018-01-28T05:02:22.379Z,93.51
2018-01-28T05:03:22.359Z,93.37
2018-01-28T05:04:22.394Z,93.99
2018-01-28T05:05:22.319Z,93.99
2018-01-28T05:06:22.314Z,93.89
2018-01-28T05:07:22.279Z,93.99
2018-01-28T05:08:22.294Z,93.99
2018-01-28T05:09:22.235Z,93.04
2018-01-28T05:10:22.219Z,93.89
2018-01-28T05:11:22.199Z,93.60
2018-01-28T05:12:22.180Z,93.79
2018-01-28T05:13:22.156Z,93.41
2018-01-28T05:14:22.138Z,93.51
2018-01-28T05:15:22.118Z,93.23
2018-01-28T05:16:22.096Z,93.32
2018-01-28T05:17:22.072Z,93.70
2018-01-28T05:18:22.054Z,93.60
2018-01-28T05:19:22.029Z,93.13
2018-01-28T05:20:22.016Z,93.51
2018-01-28T05:21:21.989Z,93.60
2018-01-28T05:22:21.980Z,93.60
2018-01-28T05:23:21.953Z,93.70
2018-01-28T05:24:21.928Z,93.75
2018-01-28T05:25:21.910Z,93.32
2018-01-28T05:26:21.893Z,93.04
2018-01-28T05:27:21.870Z,94.08
2018-01-28T05:28:21.982Z,92.94
2018-01-28T05:29:21.834Z,93.04
2018-01-28T05:30:21.865Z,93.41
2018-01-28T05:31:21.785Z,93.99
2018-01-28T05:32:21.770Z,93.79
2018-01-28T05:33:21.747Z,93.79
2018-01-28T05:34:21.883Z,93.41
2018-01-28T05:35:21.708Z,93.79
2018-01-28T05:36:21.814Z,93.41
2018-01-28T05:37:21.669Z,93.60
2018-01-28T05:38:21.650Z,93.41
2018-01-28T05:39:21.626Z,93.23
2018-01-28T05:40:21.682Z,93.32
2018-01-28T05:41:21.590Z,93.32
2018-01-28T05:42:21.570Z,93.51
2018-01-28T05:43:21.544Z,93.41
2018-01-28T05:44:21.651Z,93.27
2018-01-28T05:45:21.503Z,93.27
2018-01-28T05:46:21.487Z,93.46
2018-01-28T05:47:21.463Z,93.32
2018-01-28T05:48:21.449Z,93.60
2018-01-28T05:49:21.423Z,93.18
2018-01-28T05:50:21.404Z,93.32
2018-01-28T05:51:21.384Z,93.65
2018-01-28T05:52:21.361Z,93.27
2018-01-28T05:53:21.352Z,93.27
2018-01-28T05:54:21.320Z,93.55
2018-01-28T05:55:21.299Z,94.03
2018-01-28T05:56:21.279Z,93.75
2018-01-28T05:57:21.257Z,93.94
2018-01-28T05:58:21.239Z,94.08
2018-01-28T05:59:21.217Z,94.03
2018-01-28T06:00:21.199Z,93.94
2018-01-28T06:01:21.179Z,93.99
2018-01-28T06:02:21.157Z,94.03
2018-01-28T06:03:21.136Z,93.75
2018-01-28T06:04:21.128Z,94.32
2018-01-28T06:05:21.097Z,94.32
2018-01-28T06:06:21.082Z,93.75
2018-01-28T06:07:21.059Z,93.75
2018-01-28T06:08:21.041Z,93.46
2018-01-28T06:09:21.020Z,93.84
2018-01-28T06:10:20.998Z,93.84
2018-01-28T06:11:20.975Z,93.46
2018-01-28T06:12:20.960Z,94.42
2018-01-28T06:13:20.935Z,93.55
2018-01-28T06:14:20.934Z,94.42
2018-01-28T06:15:20.892Z,94.03
2018-01-28T06:16:20.878Z,94.03
2018-01-28T06:17:20.858Z,94.22
2018-01-28T06:18:20.832Z,94.42
2018-01-28T06:19:20.813Z,94.22
2018-01-28T06:20:20.792Z,93.84
2018-01-28T06:21:20.771Z,94.32
2018-01-28T06:22:20.758Z,94.22
2018-01-28T06:23:20.730Z,94.22
2018-01-28T06:24:20.712Z,94.42
2018-01-28T06:25:20.699Z,93.84
2018-01-28T06:26:20.671Z,93.84
2018-01-28T06:27:20.649Z,93.94
2018-01-28T06:28:20.629Z,93.75
2018-01-28T06:29:20.616Z,93.84
2018-01-28T06:30:20.590Z,94.32
2018-01-28T06:31:20.818Z,94.13
2018-01-28T06:32:20.548Z,93.94
2018-01-28T06:33:20.529Z,94.13
2018-01-28T06:34:20.518Z,94.03
2018-01-28T06:35:20.490Z,94.03
2018-01-28T06:36:20.470Z,94.22
2018-01-28T06:37:20.450Z,94.32
2018-01-28T06:38:20.429Z,94.22
2018-01-28T06:39:20.412Z,94.22
2018-01-28T06:40:20.399Z,94.13
2018-01-28T06:41:20.371Z,93.94
2018-01-28T06:42:20.349Z,94.22
2018-01-28T06:43:20.333Z,94.03
2018-01-28T06:44:20.309Z,94.03
2018-01-28T06:45:20.292Z,94.03
2018-01-28T06:46:20.269Z,94.03
2018-01-28T06:47:20.259Z,94.03
2018-01-28T06:48:20.229Z,94.13
2018-01-28T06:49:20.208Z,94.51
2018-01-28T06:50:20.190Z,94.22
2018-01-28T06:51:20.166Z,94.70
2018-01-28T06:52:20.145Z,94.60
2018-01-28T06:53:20.129Z,94.70
2018-01-28T06:54:20.109Z,94.22
2018-01-28T06:55:20.097Z,94.03
2018-01-28T06:56:20.067Z,94.03
2018-01-28T06:57:20.059Z,94.70
2018-01-28T06:58:20.027Z,94.70
2018-01-28T06:59:20.007Z,94.42
2018-01-28T07:00:19.987Z,94.60
2018-01-28T07:01:19.969Z,94.51
2018-01-28T07:02:19.949Z,94.98
2018-01-28T07:03:19.924Z,94.60
2018-01-28T07:04:19.908Z,94.60
2018-01-28T07:05:19.885Z,94.70
2018-01-28T07:06:19.866Z,94.79
2018-01-28T07:07:19.845Z,94.79
2018-01-28T07:08:19.824Z,94.89
2018-01-28T07:09:19.811Z,94.79
2018-01-28T07:10:19.789Z,94.60
2018-01-28T07:11:19.767Z,94.70
2018-01-28T07:12:19.748Z,94.70
2018-01-28T07:13:19.725Z,94.42
2018-01-28T07:14:19.704Z,94.60
2018-01-28T07:15:19.682Z,94.89
2018-01-28T07:16:19.669Z,94.70
2018-01-28T07:17:19.644Z,94.98
2018-01-28T07:18:19.625Z,94.98
2018-01-28T07:19:19.603Z,94.89
2018-01-28T07:20:19.589Z,94.89
2018-01-28T07:21:19.572Z,94.79
2018-01-28T07:22:19.545Z,94.79
2018-01-28T07:23:19.526Z,94.60
2018-01-28T07:24:19.503Z,94.70
2018-01-28T07:25:19.483Z,94.60
2018-01-28T07:26:19.472Z,94.89
2018-01-28T07:27:19.448Z,94.70
2018-01-28T07:28:19.425Z,94.79
2018-01-28T07:29:19.409Z,94.42
2018-01-28T07:30:19.389Z,94.74
2018-01-28T07:31:19.364Z,94.51
2018-01-28T07:32:19.348Z,94.03
2018-01-28T07:33:19.327Z,94.46
2018-01-28T07:34:19.305Z,94.27
2018-01-28T07:35:19.289Z,94.27
2018-01-28T07:36:19.269Z,94.56
2018-01-28T07:37:19.244Z,94.46
2018-01-28T07:38:19.237Z,94.27
2018-01-28T07:39:19.222Z,94.37
2018-01-28T07:40:19.195Z,94.37
2018-01-28T07:41:19.169Z,94.37
2018-01-28T07:42:19.148Z,94.56
2018-01-28T07:43:19.138Z,94.46
2018-01-28T07:44:19.107Z,94.18
2018-01-28T07:45:19.089Z,94.08
2018-01-28T07:46:19.070Z,93.98
2018-01-28T07:47:19.049Z,94.18
2018-01-28T07:48:19.039Z,94.18
2018-01-28T07:49:19.010Z,94.18
2018-01-28T07:50:18.991Z,93.79
2018-01-28T07:51:18.971Z,93.89
2018-01-28T07:52:18.949Z,93.89
2018-01-28T07:53:18.930Z,94.18
2018-01-28T07:54:18.908Z,94.37
2018-01-28T07:55:18.885Z,94.18
2018-01-28T07:56:18.873Z,94.18
2018-01-28T07:57:18.848Z,94.37
2018-01-28T07:58:18.849Z,93.89
2018-01-28T07:59:18.810Z,93.89
2018-01-28T08:00:18.789Z,94.18
2018-01-28T08:01:18.821Z,93.89
2018-01-28T08:02:18.749Z,93.89
2018-01-28T08:03:18.728Z,93.89
2018-01-28T08:04:18.712Z,94.46
2018-01-28T08:05:18.694Z,94.46
2018-01-28T08:06:18.679Z,93.89
2018-01-28T08:07:18.659Z,94.18
2018-01-28T08:08:18.637Z,94.18
2018-01-28T08:09:18.611Z,94.46
2018-01-28T08:10:18.600Z,94.18
2018-01-28T08:11:18.612Z,94.27
2018-01-28T08:12:18.560Z,94.27
2018-01-28T08:13:18.532Z,94.08
2018-01-28T08:14:18.516Z,94.37
2018-01-28T08:15:18.497Z,94.27
2018-01-28T08:16:18.474Z,94.18
2018-01-28T08:17:18.472Z,94.37
2018-01-28T08:18:18.436Z,94.18
2018-01-28T08:19:18.420Z,94.46
2018-01-28T08:20:18.395Z,94.27
2018-01-28T08:21:18.373Z,94.08
2018-01-28T08:22:18.359Z,94.08
2018-01-28T08:23:18.333Z,94.46
2018-01-28T08:24:18.318Z,94.08
2018-01-28T08:25:18.299Z,94.27
2018-01-28T08:26:18.283Z,94.37
2018-01-28T08:27:18.261Z,94.08
2018-01-28T08:28:18.239Z,94.08
2018-01-28T08:29:18.222Z,93.89
2018-01-28T08:30:18.196Z,93.98
2018-01-28T08:31:18.183Z,94.37
2018-01-28T08:32:18.159Z,94.37
2018-01-28T08:33:18.141Z,94.08
2018-01-28T08:34:18.119Z,94.18
2018-01-28T08:35:18.099Z,94.27
2018-01-28T08:36:18.080Z,94.18
2018-01-28T08:37:18.060Z,94.27
2018-01-28T08:38:18.042Z,93.89
2018-01-28T08:39:18.022Z,94.46
2018-01-28T08:40:18.010Z,94.46
2018-01-28T08:41:17.980Z,94.08
2018-01-28T08:42:17.966Z,94.27
2018-01-28T08:43:17.950Z,94.18
2018-01-28T08:44:17.924Z,94.37
2018-01-28T08:45:17.908Z,94.18
2018-01-28T08:46:17.891Z,93.89
2018-01-28T08:47:17.861Z,94.27
2018-01-28T08:48:17.844Z,93.70
2018-01-28T08:49:17.828Z,94.08
2018-01-28T08:50:17.805Z,93.70
2018-01-28T08:51:17.795Z,93.70
2018-01-28T08:52:17.770Z,94.08
2018-01-28T08:53:17.750Z,93.89
2018-01-28T08:54:17.729Z,94.18
2018-01-28T08:55:17.708Z,94.08
2018-01-28T08:56:17.686Z,93.60
2018-01-28T08:57:17.677Z,93.98
2018-01-28T08:58:17.651Z,93.79
2018-01-28T08:59:17.633Z,94.08
2018-01-28T09:00:17.610Z,94.27
2018-01-28T09:01:17.599Z,93.89
2018-01-28T09:02:17.578Z,93.60
2018-01-28T09:03:17.548Z,94.27
2018-01-28T09:04:17.534Z,94.18
2018-01-28T09:05:17.519Z,94.18
2018-01-28T09:06:17.493Z,94.37
2018-01-28T09:07:17.480Z,93.79
2018-01-28T09:08:17.459Z,93.79
2018-01-28T09:09:17.435Z,94.18
2018-01-28T09:10:17.419Z,93.60
2018-01-28T09:11:17.399Z,93.65
2018-01-28T09:12:17.380Z,94.27
2018-01-28T09:13:17.358Z,94.13
2018-01-28T09:14:17.359Z,93.70
2018-01-28T09:15:17.316Z,93.79
2018-01-28T09:16:17.298Z,93.84
2018-01-28T09:17:17.279Z,93.84
2018-01-28T09:18:17.261Z,93.94
2018-01-28T09:19:17.239Z,93.65
2018-01-28T09:20:17.217Z,93.94
2018-01-28T09:21:17.201Z,94.03
2018-01-28T09:22:17.183Z,93.74
2018-01-28T09:23:17.159Z,93.94
2018-01-28T09:24:17.145Z,94.13
2018-01-28T09:25:17.126Z,93.84
2018-01-28T09:26:17.103Z,93.94
2018-01-28T09:27:17.080Z,93.94
2018-01-28T09:28:17.064Z,93.94
2018-01-28T09:29:17.053Z,93.94
2018-01-28T09:30:17.026Z,94.03
2018-01-28T09:31:17.009Z,93.94
2018-01-28T09:32:16.988Z,94.03
2018-01-28T09:33:16.974Z,94.13
2018-01-28T09:34:16.950Z,93.94
2018-01-28T09:35:16.931Z,94.13
2018-01-28T09:36:16.912Z,93.84
2018-01-28T09:37:16.891Z,93.94
2018-01-28T09:38:16.878Z,93.94
2018-01-28T09:39:16.852Z,94.03
2018-01-28T09:40:16.838Z,93.84
2018-01-28T09:41:16.818Z,93.84
2018-01-28T09:42:16.807Z,93.74
2018-01-28T09:43:16.780Z,93.18
2018-01-28T09:44:16.759Z,93.55
2018-01-28T09:45:16.754Z,93.55
2018-01-28T09:46:16.724Z,93.84
2018-01-28T09:47:16.701Z,93.74
2018-01-28T09:48:16.687Z,93.84
2018-01-28T09:49:16.662Z,94.03
2018-01-28T09:50:16.646Z,93.94
2018-01-28T09:51:16.629Z,93.84
2018-01-28T09:52:16.606Z,93.74
2018-01-28T09:53:16.601Z,94.03
2018-01-28T09:54:16.569Z,93.74
2018-01-28T09:55:16.550Z,93.84
2018-01-28T09:56:16.527Z,93.74
2018-01-28T09:57:16.510Z,93.55
2018-01-28T09:58:16.492Z,94.13
2018-01-28T09:59:16.469Z,93.74
2018-01-28T10:00:16.458Z,93.94
2018-01-28T10:01:16.434Z,93.65
2018-01-28T10:02:16.423Z,93.84
2018-01-28T10:03:16.395Z,93.94
2018-01-28T10:04:16.378Z,93.55
2018-01-28T10:05:16.365Z,93.55
2018-01-28T10:06:16.339Z,93.74
2018-01-28T10:07:16.328Z,93.65
2018-01-28T10:08:16.302Z,93.74
2018-01-28T10:09:16.285Z,93.84
2018-01-28T10:10:16.274Z,93.74
2018-01-28T10:11:16.244Z,93.74
2018-01-28T10:12:16.231Z,93.74
2018-01-28T10:13:16.206Z,93.74
2018-01-28T10:14:16.197Z,93.08
2018-01-28T10:15:16.185Z,93.37
2018-01-28T10:16:16.152Z,93.37
2018-01-28T10:17:16.135Z,93.41
2018-01-28T10:18:16.114Z,93.41
2018-01-28T10:19:16.102Z,93.22
2018-01-28T10:20:16.072Z,93.60
2018-01-28T10:21:16.062Z,93.41
2018-01-28T10:22:16.041Z,93.32
2018-01-28T10:23:16.022Z,93.41
2018-01-28T10:24:16.000Z,93.51
2018-01-28T10:25:15.979Z,93.65
2018-01-28T10:26:15.960Z,93.55
2018-01-28T10:27:15.938Z,93.60
2018-01-28T10:28:15.931Z,93.41
2018-01-28T10:29:15.907Z,93.60
2018-01-28T10:30:15.887Z,93.70
2018-01-28T10:31:15.874Z,93.79
2018-01-28T10:32:15.860Z,93.22
2018-01-28T10:33:15.834Z,93.22
2018-01-28T10:34:15.823Z,93.79
2018-01-28T10:35:15.798Z,93.13
2018-01-28T10:36:15.775Z,93.13
2018-01-28T10:37:15.792Z,93.22
2018-01-28T10:38:15.743Z,93.70
2018-01-28T10:39:15.716Z,93.32
2018-01-28T10:40:15.694Z,93.60
2018-01-28T10:41:15.691Z,92.94
2018-01-28T10:42:15.673Z,93.13
2018-01-28T10:43:15.647Z,93.22
2018-01-28T10:44:15.623Z,93.13
2018-01-28T10:45:15.601Z,93.51
2018-01-28T10:46:15.581Z,93.13
2018-01-28T10:47:15.559Z,93.22
2018-01-28T10:48:15.546Z,93.32
2018-01-28T10:49:15.530Z,93.41
2018-01-28T10:50:15.509Z,93.41
2018-01-28T10:51:15.493Z,93.70
2018-01-28T10:52:15.473Z,93.41
2018-01-28T10:53:15.450Z,93.13
2018-01-28T10:54:15.435Z,93.41
2018-01-28T10:55:15.409Z,93.41
2018-01-28T10:56:15.390Z,93.03
2018-01-28T10:57:15.379Z,93.41
2018-01-28T10:58:15.355Z,93.41
2018-01-28T10:59:15.351Z,93.41
2018-01-28T11:00:15.316Z,93.89
2018-01-28T11:01:15.300Z,93.22
2018-01-28T11:02:15.290Z,93.22
2018-01-28T11:03:15.259Z,93.13
2018-01-28T11:04:15.252Z,93.22
2018-01-28T11:05:15.226Z,93.13
2018-01-28T11:06:15.210Z,93.60
2018-01-28T11:07:15.192Z,93.60
2018-01-28T11:08:15.169Z,93.41
2018-01-28T11:09:15.149Z,93.41
2018-01-28T11:10:15.219Z,93.79
2018-01-28T11:11:15.111Z,93.70
2018-01-28T11:12:15.095Z,93.51
2018-01-28T11:13:15.086Z,93.22
2018-01-28T11:14:15.068Z,93.79
2018-01-28T11:15:15.043Z,93.70
2018-01-28T11:16:15.020Z,93.70
2018-01-28T11:17:14.998Z,93.03
2018-01-28T11:18:14.978Z,94.03
2018-01-28T11:19:14.962Z,93.74
2018-01-28T11:20:14.940Z,93.74
2018-01-28T11:21:14.923Z,93.84
2018-01-28T11:22:14.916Z,94.03
2018-01-28T11:23:14.882Z,93.84
2018-01-28T11:24:14.869Z,94.03
2018-01-28T11:25:14.858Z,93.93
2018-01-28T11:26:14.829Z,94.03
2018-01-28T11:27:14.807Z,93.93
2018-01-28T11:28:14.801Z,94.03
2018-01-28T11:29:14.769Z,93.93
2018-01-28T11:30:14.759Z,94.03
2018-01-28T11:31:14.742Z,93.84
2018-01-28T11:32:14.726Z,94.13
2018-01-28T11:33:14.701Z,94.41
2018-01-28T11:34:14.696Z,94.32
2018-01-28T11:35:14.659Z,94.41
2018-01-28T11:36:14.652Z,94.41
2018-01-28T11:37:14.634Z,94.41
2018-01-28T11:38:14.609Z,94.32
2018-01-28T11:39:14.597Z,94.41
2018-01-28T11:40:14.571Z,94.32
2018-01-28T11:41:14.573Z,95.08
2018-01-28T11:42:14.530Z,94.89
2018-01-28T11:43:14.522Z,94.41
2018-01-28T11:44:14.500Z,94.32
2018-01-28T11:45:14.490Z,94.32
2018-01-28T11:46:14.465Z,94.41
2018-01-28T11:47:14.444Z,95.22
2018-01-28T11:48:14.434Z,94.41
2018-01-28T11:49:14.413Z,94.46
2018-01-28T11:50:14.397Z,94.79
2018-01-28T11:51:14.371Z,94.22
2018-01-28T11:52:14.359Z,94.41
2018-01-28T11:53:14.335Z,94.41
2018-01-28T11:54:14.323Z,95.12
2018-01-28T11:55:14.331Z,95.22
2018-01-28T11:56:14.284Z,95.03
2018-01-28T11:57:14.265Z,94.60
2018-01-28T11:58:14.243Z,94.03
2018-01-28T11:59:14.234Z,94.70
2018-01-28T12:00:14.410Z,94.60
2018-01-28T12:01:14.188Z,94.22
2018-01-28T12:02:14.178Z,95.08
2018-01-28T12:03:14.153Z,94.60
2018-01-28T12:04:14.142Z,94.41
2018-01-28T12:05:14.126Z,94.60
2018-01-28T12:06:14.102Z,94.79
2018-01-28T12:07:14.091Z,94.65
2018-01-28T12:08:14.059Z,94.79
2018-01-28T12:09:14.044Z,94.56
2018-01-28T12:10:14.027Z,94.46
2018-01-28T12:11:14.014Z,94.46
2018-01-28T12:12:13.990Z,94.46
2018-01-28T12:13:13.971Z,94.32
2018-01-28T12:14:13.955Z,94.60
2018-01-28T12:15:13.932Z,95.32
2018-01-28T12:16:13.922Z,94.46
2018-01-28T12:17:13.900Z,94.46
2018-01-28T12:18:13.880Z,94.74
2018-01-28T12:19:13.861Z,95.03
2018-01-28T12:20:13.848Z,93.98
2018-01-28T12:21:13.828Z,94.27
2018-01-28T12:22:13.811Z,94.74
2018-01-28T12:23:13.794Z,94.65
2018-01-28T12:24:13.772Z,94.65
2018-01-28T12:25:13.752Z,95.03
2018-01-28T12:26:13.739Z,94.27
2018-01-28T12:27:13.727Z,94.27
2018-01-28T12:28:13.699Z,95.32
2018-01-28T12:29:13.677Z,94.27
2018-01-28T12:30:13.660Z,94.27
2018-01-28T12:31:13.646Z,94.27
2018-01-28T12:32:13.626Z,94.46
2018-01-28T12:33:13.609Z,94.84
2018-01-28T12:34:13.592Z,94.56
2018-01-28T12:35:13.573Z,94.65
2018-01-28T12:36:13.559Z,94.37
2018-01-28T12:37:13.541Z,94.46
2018-01-28T12:38:13.522Z,94.46
2018-01-28T12:39:13.504Z,94.65
2018-01-28T12:40:13.481Z,94.65
2018-01-28T12:41:13.471Z,94.93
2018-01-28T12:42:13.449Z,94.93
2018-01-28T12:43:13.430Z,94.56
2018-01-28T12:44:13.410Z,94.65
2018-01-28T12:45:13.401Z,94.37
2018-01-28T12:46:13.372Z,94.65
2018-01-28T12:47:13.359Z,94.65
2018-01-28T12:48:13.339Z,94.65
2018-01-28T12:49:13.320Z,94.74
2018-01-28T12:50:13.313Z,94.74
2018-01-28T12:51:13.297Z,94.65
2018-01-28T12:52:13.268Z,94.46